createdAt,value
2022-11-07T00:01:36.552Z,10.56
2022-11-07T00:06:38.072Z,10.57
2022-11-07T00:11:39.617Z,10.50
2022-11-07T00:16:41.579Z,10.16
2022-11-07T00:21:43.656Z,10.41
2022-11-07T00:26:46.864Z,10.14
2022-11-07T00:31:49.181Z,10.44
2022-11-07T00:36:50.684Z,10.32
2022-11-07T00:41:52.122Z,10.50
2022-11-07T00:46:53.552Z,10.57
2022-11-07T00:51:54.984Z,10.38
2022-11-07T00:56:56.480Z,10.48
2022-11-07T01:01:58.103Z,10.55
2022-11-07T01:06:59.829Z,10.53
2022-11-07T01:12:01.381Z,10.56
2022-11-07T01:17:02.914Z,10.49
2022-11-07T01:22:04.465Z,10.56
2022-11-07T01:27:05.985Z,10.60
2022-11-07T01:32:07.509Z,10.55
2022-11-07T01:37:09.042Z,10.63
2022-11-07T01:42:12.214Z,10.69
2022-11-07T01:47:13.785Z,10.64
2022-11-07T01:52:22.953Z,10.63
2022-11-07T01:57:29.263Z,10.67
2022-11-07T02:02:32.714Z,10.60
2022-11-07T02:07:35.730Z,10.62
2022-11-07T02:12:37.694Z,10.60
2022-11-07T02:17:39.242Z,10.64
2022-11-07T02:22:56.135Z,10.53
2022-11-07T02:28:00.342Z,10.59
2022-11-07T02:33:03.047Z,10.68
2022-11-07T02:38:08.626Z,10.65
2022-11-07T02:43:13.174Z,10.58
2022-11-07T02:48:15.322Z,10.60
2022-11-07T02:53:17.099Z,10.54
2022-11-07T02:58:18.940Z,10.57
2022-11-07T03:03:20.550Z,10.64
2022-11-07T03:08:22.170Z,10.70
2022-11-07T03:13:24.525Z,10.63
2022-11-07T03:18:27.020Z,10.65
2022-11-07T03:23:28.660Z,10.70
2022-11-07T03:28:30.262Z,10.65
2022-11-07T03:33:32.276Z,10.61
2022-11-07T03:38:33.728Z,10.72
2022-11-07T03:43:35.152Z,10.59
2022-11-07T03:48:36.654Z,10.72
2022-11-07T03:53:38.400Z,10.60
2022-11-07T03:58:39.799Z,10.54
2022-11-07T04:03:41.296Z,10.57
2022-11-07T04:08:42.824Z,10.57
2022-11-07T04:13:44.220Z,10.54
2022-11-07T04:18:45.837Z,10.43
2022-11-07T04:23:47.312Z,10.44
2022-11-07T04:28:48.723Z,10.35
2022-11-07T04:33:50.224Z,10.35
2022-11-07T04:38:51.693Z,10.32
2022-11-07T04:43:53.114Z,10.33
2022-11-07T04:48:54.567Z,10.31
2022-11-07T04:53:56.067Z,10.27
2022-11-07T04:58:57.522Z,10.30
2022-11-07T05:03:58.962Z,10.34
2022-11-07T05:09:00.386Z,10.28
2022-11-07T05:14:01.797Z,10.27
2022-11-07T05:19:03.600Z,10.33
2022-11-07T05:24:05.379Z,10.22
2022-11-07T05:29:06.991Z,10.42
2022-11-07T05:34:13.490Z,10.37
2022-11-07T05:39:16.024Z,10.21
2022-11-07T05:44:17.497Z,9.93
2022-11-07T05:49:19.001Z,9.91
2022-11-07T05:54:20.644Z,10.03
2022-11-07T05:59:22.114Z,10.12
2022-11-07T06:04:23.624Z,10.19
2022-11-07T06:09:25.072Z,10.10
2022-11-07T06:14:27.849Z,10.19
2022-11-07T06:19:29.480Z,10.03
2022-11-07T06:24:31.051Z,10.06
2022-11-07T06:29:32.582Z,10.33
2022-11-07T06:34:34.013Z,10.60
2022-11-07T06:39:35.494Z,10.75
2022-11-07T06:44:37.054Z,10.77
2022-11-07T06:49:38.505Z,10.73
2022-11-07T06:54:39.934Z,10.70
2022-11-07T06:59:41.358Z,10.70
2022-11-07T07:04:42.920Z,10.86
2022-11-07T07:09:44.469Z,10.91
2022-11-07T07:14:45.964Z,11.01
2022-11-07T07:19:47.701Z,11.00
2022-11-07T07:24:49.345Z,11.02
2022-11-07T07:29:51.185Z,11.08
2022-11-07T07:34:52.864Z,11.08
2022-11-07T07:39:54.627Z,11.14
2022-11-07T07:44:56.213Z,11.18
2022-11-07T07:49:57.719Z,11.19
2022-11-07T07:54:59.200Z,11.24
2022-11-07T08:00:00.740Z,11.23
2022-11-07T08:05:02.406Z,11.32
2022-11-07T08:10:27.152Z,11.35
2022-11-07T08:15:29.081Z,11.61
2022-11-07T08:20:30.963Z,11.68
2022-11-07T08:25:32.765Z,11.88
2022-11-07T08:30:35.598Z,11.93
2022-11-07T08:35:42.303Z,11.96
2022-11-07T08:40:44.469Z,11.90
2022-11-07T08:45:48.046Z,12.16
2022-11-07T08:50:57.378Z,12.19
2022-11-07T08:56:04.009Z,12.18
2022-11-07T09:01:08.043Z,12.24
2022-11-07T09:06:09.674Z,12.10
2022-11-07T09:11:11.280Z,12.28
2022-11-07T09:16:12.841Z,12.27
2022-11-07T09:21:20.680Z,12.18
2022-11-07T09:26:23.804Z,12.41
2022-11-07T09:31:25.320Z,12.43
2022-11-07T09:36:27.090Z,12.45
2022-11-07T09:41:46.241Z,12.46
2022-11-07T09:46:59.709Z,12.48
2022-11-07T09:52:24.133Z,12.39
2022-11-07T09:57:26.130Z,12.58
2022-11-07T10:02:32.166Z,12.57
2022-11-07T10:07:36.736Z,12.51
2022-11-07T10:13:06.221Z,12.57
2022-11-07T10:18:33.717Z,12.69
2022-11-07T10:23:54.030Z,12.80
2022-11-07T10:29:20.605Z,12.84
2022-11-07T10:34:36.020Z,12.78
2022-11-07T10:39:37.811Z,12.73
2022-11-07T10:44:41.670Z,12.76
2022-11-07T10:49:59.782Z,12.85
2022-11-07T10:55:17.273Z,12.86
2022-11-07T11:00:29.656Z,12.98
2022-11-07T11:05:31.060Z,13.02
2022-11-07T11:10:38.237Z,12.99
2022-11-07T11:15:44.458Z,13.18
2022-11-07T11:20:58.191Z,13.16
2022-11-07T11:26:07.467Z,13.18
2022-11-07T11:31:18.343Z,13.29
2022-11-07T11:36:26.346Z,13.06
2022-11-07T11:41:52.102Z,13.27
2022-11-07T11:47:04.034Z,13.24
2022-11-07T11:52:14.863Z,13.12
2022-11-07T11:57:45.608Z,13.10
2022-11-07T12:03:15.473Z,13.32
2022-11-07T12:08:29.254Z,13.32
2022-11-07T12:13:58.477Z,13.19
2022-11-07T12:19:20.893Z,13.22
2022-11-07T12:24:31.490Z,13.03
2022-11-07T12:30:10.499Z,13.28
2022-11-07T12:35:14.782Z,13.14
2022-11-07T12:40:38.072Z,13.18
2022-11-07T12:46:12.083Z,13.17
2022-11-07T12:51:29.352Z,13.10
2022-11-07T12:56:35.108Z,13.02
2022-11-07T13:01:53.102Z,13.18
2022-11-07T13:07:00.255Z,13.11
2022-11-07T13:12:11.228Z,13.06
2022-11-07T13:17:20.243Z,13.11
2022-11-07T13:22:30.780Z,13.19
2022-11-07T13:27:36.345Z,13.05
2022-11-07T13:32:38.841Z,13.02
2022-11-07T13:37:42.791Z,13.12
2022-11-07T13:42:45.283Z,13.20
2022-11-07T13:47:47.735Z,13.17
2022-11-07T13:53:19.370Z,13.10
2022-11-07T13:58:22.372Z,13.14
2022-11-07T14:03:26.875Z,13.14
2022-11-07T14:08:31.226Z,13.07
2022-11-07T14:13:40.628Z,13.05
2022-11-07T14:18:48.661Z,12.99
2022-11-07T14:23:50.229Z,13.15
2022-11-07T14:28:52.600Z,12.98
2022-11-07T14:34:00.938Z,13.20
2022-11-07T14:39:11.430Z,13.11
2022-11-07T14:44:53.351Z,13.16
2022-11-07T14:49:59.849Z,13.18
2022-11-07T14:55:05.493Z,13.05
2022-11-07T15:00:20.107Z,13.11
2022-11-07T15:05:28.898Z,13.23
2022-11-07T15:10:36.170Z,13.19
2022-11-07T15:15:37.935Z,13.28
2022-11-07T15:20:39.550Z,13.17
2022-11-07T15:25:53.203Z,13.04
2022-11-07T15:30:57.109Z,13.14
2022-11-07T15:36:01.212Z,13.11
2022-11-07T15:41:02.700Z,12.92
2022-11-07T15:46:13.089Z,13.03
2022-11-07T15:51:14.569Z,12.95
2022-11-07T15:56:19.433Z,12.93
2022-11-07T16:01:21.103Z,12.98
2022-11-07T16:06:30.526Z,12.98
2022-11-07T16:11:31.989Z,12.82
2022-11-07T16:16:34.517Z,12.80
2022-11-07T16:21:35.970Z,12.84
2022-11-07T16:26:38.994Z,12.67
2022-11-07T16:31:41.443Z,12.75
2022-11-07T16:36:43.012Z,12.88
2022-11-07T16:41:44.596Z,12.74
2022-11-07T16:46:45.978Z,12.87
2022-11-07T16:51:47.419Z,12.85
2022-11-07T16:56:49.109Z,12.88
2022-11-07T17:01:52.788Z,12.91
2022-11-07T17:06:54.405Z,12.94
2022-11-07T17:11:55.810Z,12.94
2022-11-07T17:16:57.264Z,12.89
2022-11-07T17:21:58.875Z,12.72
2022-11-07T17:27:00.385Z,12.68
2022-11-07T17:32:01.793Z,12.55
2022-11-07T17:37:03.221Z,12.49
2022-11-07T17:42:04.965Z,12.53
2022-11-07T17:47:06.929Z,12.52
2022-11-07T17:52:08.333Z,12.35
2022-11-07T17:57:10.401Z,12.38
2022-11-07T18:02:19.552Z,12.53
2022-11-07T18:07:21.064Z,12.54
2022-11-07T18:12:22.466Z,12.28
2022-11-07T18:17:23.902Z,12.35
2022-11-07T18:22:25.322Z,12.21
2022-11-07T18:27:26.790Z,12.09
2022-11-07T18:32:32.927Z,12.01
2022-11-07T18:37:37.442Z,11.95
2022-11-07T18:42:42.922Z,11.92
2022-11-07T18:47:44.357Z,11.79
2022-11-07T18:52:45.835Z,11.81
2022-11-07T18:57:47.293Z,11.68
2022-11-07T19:02:51.259Z,11.62
2022-11-07T19:07:52.824Z,11.53
2022-11-07T19:12:54.254Z,11.55
2022-11-07T19:17:55.785Z,11.62
2022-11-07T19:22:57.202Z,11.47
2022-11-07T19:27:58.624Z,11.41
2022-11-07T19:33:00.939Z,11.33
2022-11-07T19:38:08.694Z,11.32
2022-11-07T19:43:11.578Z,11.28
2022-11-07T19:48:13.192Z,11.02
2022-11-07T19:53:15.050Z,11.03
2022-11-07T19:58:16.691Z,11.06
2022-11-07T20:03:18.491Z,11.00
2022-11-07T20:08:21.151Z,11.04
2022-11-07T20:13:22.733Z,11.01
2022-11-07T20:18:24.865Z,10.74
2022-11-07T20:23:26.406Z,10.46
2022-11-07T20:28:27.854Z,10.48
2022-11-07T20:33:29.494Z,10.26
2022-11-07T20:38:31.467Z,10.21
2022-11-07T20:43:33.602Z,10.24
2022-11-07T20:48:35.606Z,10.09
2022-11-07T20:53:38.611Z,10.24
2022-11-07T20:58:41.934Z,10.28
2022-11-07T21:03:43.606Z,10.19
2022-11-07T21:08:48.299Z,10.16
2022-11-07T21:13:53.185Z,10.03
2022-11-07T21:18:56.020Z,9.90
2022-11-07T21:23:57.963Z,9.85
2022-11-07T21:29:00.805Z,9.83
2022-11-07T21:34:02.356Z,9.76
2022-11-07T21:39:04.603Z,9.67
2022-11-07T21:44:06.012Z,9.67
2022-11-07T21:49:08.037Z,9.67
2022-11-07T21:54:09.888Z,9.54
2022-11-07T21:59:11.845Z,9.38
2022-11-07T22:04:13.668Z,9.31
2022-11-07T22:09:17.179Z,9.40
2022-11-07T22:14:22.198Z,9.27
2022-11-07T22:19:25.153Z,9.36
2022-11-07T22:24:26.574Z,9.35
2022-11-07T22:29:27.991Z,9.14
2022-11-07T22:34:29.455Z,9.10
2022-11-07T22:39:30.991Z,9.11
2022-11-07T22:44:32.423Z,9.19
2022-11-07T22:49:33.937Z,9.03
2022-11-07T22:54:35.432Z,9.17
2022-11-07T22:59:36.897Z,9.04
2022-11-07T23:04:38.318Z,8.95
2022-11-07T23:09:39.841Z,8.86
2022-11-07T23:14:41.338Z,8.84
2022-11-07T23:19:42.798Z,8.87
2022-11-07T23:24:47.147Z,8.85
2022-11-07T23:29:48.610Z,8.88
2022-11-07T23:34:50.008Z,8.82
2022-11-07T23:39:51.487Z,8.82
2022-11-07T23:44:52.964Z,8.67
2022-11-07T23:49:54.415Z,8.85
2022-11-07T23:54:55.827Z,8.71
2022-11-07T23:59:57.255Z,8.74
